Aérodrome :
LOGIN :

S'inscrire | Disclaimer

   EN    FR    IT 

 










Légende :    VFR   VFR Marginal   IFR   IFR Intensif   IFR Très Intensif
Visi : 
Plafond : 
>= 8 km
>= 3000ft
5 à 8 km
1000 à 3000 ft
1500m à 5 km
500 à 1000 ft
800 à 1500m
200 à 500 ft
< 800m
< 200 ft
Symboles :   Orages  Brouillard  Fortes neiges  Fortes précipitations  Vent > 20 kt
SIGMETs :   Divers  Orages  Givrage  Turbulence  Onde Orograph.  Cendres Volcan.







- Altitude de l'aérodrome : 628 ft
- Code IATA : CMR
- Voir les cartes d'approche


LFGA - Colmar-Houssen

DERNIER METAR :
  • 170530Z AUTO 21007KT 180V240 9999 -RA SCT046 BKN060 BKN078 07/04 Q1007

METARs EXPIRÉS :
  • 170500Z AUTO VRB02KT 9999 -RA FEW039 BKN046 OVC086 06/03 Q1008
  • 170430Z AUTO 13004KT 9999 BKN042 BKN054 OVC080 07/03 Q1008
  • 170400Z AUTO 14004KT 9999 BKN040 OVC048 07/03 Q1009
  • 170330Z AUTO 16004KT 9999 FEW040 SCT046 BKN074 07/03 Q1009
  • 170300Z AUTO 18007KT 9999 -RA SCT047 SCT058 OVC076 07/03 Q1009
  • 170230Z AUTO 19009KT 160V240 9999 FEW043 BKN068 BKN240 08/02 Q1010

TAF N/A
Pas de NOTAMs connus pour ce terrain.
1 SIGMET publié pour la FIR Reims (LFEE) :
 
Turbulence forte
LFEE SIGMET 2 VALID 170100/170500 LFPW
LFEE REIMS FIR/UIR SEV TURB FCST WI N4845 E00715 - N4830 E00745 - N4745 E00730 - N4745 E00645 - N4845 E00715 SFC/FL050 STNR NC=



MET'MAP, la Météo Aéronautique d'un coup d'oeil ! - Copyright ORBIFLY Décembre 2007 - Disclaimer

ORBIFLY MET'MAP TEAM :

Programmation & Développement : Alexandra Zaïnal
Conception & Développement : Baudouin d'Aumeries
Co-Programmation & Développement : Marc-Olivier Méhu
Soutien technique & logistique : Manuel Goepfert

Contact : metmap@orbifly.com




SOURCES & CREDITS :

   NOAA